This is the latest recevied weather packets stored in our database for station/object AE0NK. If no packets are shown the sender has not sent any weather packets the latest 10 day(s).
| Time | Temp. | Humidity | Pressure | Rain* | Wind** | Luminosity | Snow |
|---|---|---|---|---|---|---|---|
| 1778269403 | 21.67° C | 26% | 1007.1 hPa | 0 mm | - | 833 W/m² | - |
| 1778269098 | 22.22° C | 27% | 1007.2 hPa | 0 mm | - | 846 W/m² | - |
| 1778268797 | 21.11° C | 29% | 1007.2 hPa | 0 mm | - | 863 W/m² | - |
| 1778268494 | 21.67° C | 28% | 1007.3 hPa | 0 mm | - | 856 W/m² | - |
| 1778268192 | 22.22° C | 27% | 1007.4 hPa | 0 mm | - | 831 W/m² | - |
| 1778267892 | 22.22° C | 27% | 1007.4 hPa | 0 mm | - | 838 W/m² | - |
| 1778267606 | 21.67° C | 30% | 1007.4 hPa | 0 mm | - | 867 W/m² | - |
| 1778267302 | 21.67° C | 29% | 1007.4 hPa | 0 mm | - | 886 W/m² | - |
| 1778266999 | 21.67° C | 29% | 1007.4 hPa | 0 mm | - | 882 W/m² | - |
| 1778266694 | 21.67° C | 29% | 1007.4 hPa | 0 mm | - | 893 W/m² | - |
| 1778266392 | 21.11° C | 29% | 1007.5 hPa | 0 mm | - | 888 W/m² | - |
| 1778266110 | 21.67° C | 29% | 1007.6 hPa | 0 mm | - | 895 W/m² | - |
| 1778265809 | 21.67° C | 28% | 1007.6 hPa | 0 mm | - | 856 W/m² | - |
| 1778265508 | 21.67° C | 29% | 1007.7 hPa | 0 mm | - | 870 W/m² | - |
| 1778265205 | 21.67° C | 28% | 1007.7 hPa | 0 mm | - | 795 W/m² | - |
| 1778264905 | 21.11° C | 31% | 1007.7 hPa | 0 mm | - | 921 W/m² | - |
| 1778264602 | 21.67° C | 29% | 1007.8 hPa | 0 mm | - | 928 W/m² | - |
| 1778264301 | 21.11° C | 29% | 1007.7 hPa | 0 mm | - | 958 W/m² | - |
| 1778263998 | 20.56° C | 30% | 1007.8 hPa | 0 mm | - | 928 W/m² | - |
| 1778263696 | 21.11° C | 30% | 1007.9 hPa | 0 mm | - | 921 W/m² | - |
| 1778263392 | 21.67° C | 29% | 1007.9 hPa | 0 mm | - | 911 W/m² | - |
| 1778263107 | 21.67° C | 31% | 1007.9 hPa | 0 mm | - | 907 W/m² | - |
| 1778262803 | 21.11° C | 31% | 1007.8 hPa | 0 mm | - | 902 W/m² | - |
| 1778262499 | 21.11° C | 30% | 1008 hPa | 0 mm | - | 911 W/m² | - |
| 1778262198 | 21.11° C | 31% | 1008.2 hPa | 0 mm | - | 914 W/m² | - |
* Rain latest hour (hover to see other rain measurements)
** Current wind speed in m/s (hover to see current wind gust speed)